KGGG/GGG METAR and TAF weather

Enter ICAO airport designator
Station Type Date Time Source
KGGG METAR 2022/12/05 14:00 UTC NOAA

KGGG 051400Z 18005KT 1/2SM R13/5500V6000FT FG VV003 15/14 A2994 RMK AO2 T01500144


Station Type Date Time Source
KGGG Decoded METAR 2022/12/05 14:00 UTC NOAA

LONGVIEW GREGG COUNTY AIRPORT , TX, United States (KGGG) 32-23N 094-43W 107M
Dec 05, 2022 - 09:00 AM EST / 2022.12.05 1400 UTC
Wind: from the S (180 degrees) at 6 MPH (5 KT) (direction variable):0
Visibility: 1/2 mile(s):0
Sky conditions: obscured
Weather: fog
Temperature: 59.0 F (15.0 C)
Dew Point: 57.9 F (14.4 C)
Relative Humidity: 96%
Pressure (altimeter): 29.94 in. Hg (1013 hPa)
ob: KGGG 051400Z 18005KT 1/2SM R13/5500V6000FT FG VV003 15/14 A2994 RMK AO2 T01500144
cycle: 14

Station Type Date Time Source
KGGG TAF 2022/12/05 14:54 UTC NOAA

TAF
AMD KGGG 051352Z 0514/0612 18004KT 1/4SM FG OVC002
FM051500 20011G18KT P6SM OVC008
FM051800 21015G25KT P6SM OVC020
FM060000 20010KT P6SM BKN035
FM060700 20010KT P6SM BKN013

Example: see airport list